Braddock, New Jersey
Current Conditions -  °F | °C
As of 8:54 PM on Wednesday 22 Oct 2014 (Local Time) from KACY Reporting Station
Light Rain Light Rain  
Wind Chill: 52°   Ceiling: 1400
Heat Index: 52°   Visibility: 9mi
Dew Point: 50°   Wind: 16mph
Humidity: 93%   Direction: 340°NNW
Pressure: 29.76"   Gusts: 29mph
Location:  39.637°N, 74.7602°W
Report Text: KACY 230054Z 34014G25KT 9SM -RA BKN014 BKN021 OVC055 11/10 A2976 RMK AO2 SLP077 P0007 T01110100
Loading
Personal Weather Stations






























Interactive Weather Map
Tropical Storm Tracking
New forecast layout! Learn more

10-Day Weather Forecast

Advertisements
Track Severe Weather on mobile